createdAt,value
2023-02-05T00:00:51.611Z,3.10
2023-02-05T00:03:19.789Z,3.60
2023-02-05T00:05:47.785Z,3.40
2023-02-05T00:08:15.844Z,3.60
2023-02-05T00:10:44.113Z,3.50
2023-02-05T00:13:12.572Z,3.20
2023-02-05T00:15:40.934Z,3.70
2023-02-05T00:18:09.724Z,3.60
2023-02-05T00:20:38.006Z,3.00
2023-02-05T00:23:06.322Z,3.50
2023-02-05T00:25:34.711Z,3.00
2023-02-05T00:28:03.328Z,3.10
2023-02-05T00:30:32.270Z,3.60
2023-02-05T00:33:00.434Z,3.70
2023-02-05T00:35:30.233Z,3.60
2023-02-05T00:37:58.314Z,3.20
2023-02-05T00:40:26.668Z,3.40
2023-02-05T00:42:54.680Z,4.10
2023-02-05T00:45:22.925Z,3.30
2023-02-05T00:47:50.894Z,3.60
2023-02-05T00:50:19.074Z,3.60
2023-02-05T00:52:47.059Z,3.40
2023-02-05T00:55:15.305Z,3.70
2023-02-05T00:57:43.346Z,3.90
2023-02-05T01:00:12.447Z,3.70
2023-02-05T01:02:41.659Z,3.40
2023-02-05T01:05:09.844Z,3.50
2023-02-05T01:07:38.430Z,3.40
2023-02-05T01:10:07.808Z,3.70
2023-02-05T01:12:36.014Z,3.10
2023-02-05T01:15:06.261Z,3.80
2023-02-05T01:17:34.712Z,3.30
2023-02-05T01:20:03.196Z,3.40
2023-02-05T01:22:32.289Z,3.60
2023-02-05T01:25:00.500Z,3.70
2023-02-05T01:27:28.536Z,3.50
2023-02-05T01:29:57.123Z,3.40
2023-02-05T01:32:25.299Z,3.60
2023-02-05T01:34:53.266Z,3.40
2023-02-05T01:37:21.748Z,3.90
2023-02-05T01:39:52.138Z,3.50
2023-02-05T01:42:22.936Z,3.40
2023-02-05T01:45:23.576Z,3.60
2023-02-05T01:47:53.054Z,3.70
2023-02-05T01:50:27.256Z,3.60
2023-02-05T01:52:55.912Z,3.50
2023-02-05T01:55:24.391Z,3.20
2023-02-05T01:57:52.515Z,3.20
2023-02-05T02:00:21.706Z,3.30
2023-02-05T02:02:49.664Z,3.70
2023-02-05T02:05:18.211Z,3.60
2023-02-05T02:07:46.398Z,3.60
2023-02-05T02:10:15.517Z,3.30
2023-02-05T02:12:44.397Z,3.60
2023-02-05T02:15:15.454Z,3.60
2023-02-05T02:17:45.978Z,4.00
2023-02-05T02:20:18.764Z,4.00
2023-02-05T02:22:55.959Z,3.60
2023-02-05T02:25:33.283Z,3.50
2023-02-05T02:28:02.876Z,3.60
2023-02-05T02:30:35.733Z,4.10
2023-02-05T02:33:15.324Z,3.90
2023-02-05T02:36:01.273Z,3.80
2023-02-05T02:38:35.889Z,3.80
2023-02-05T02:41:10.809Z,4.20
2023-02-05T02:44:05.914Z,3.60
2023-02-05T02:46:38.816Z,4.60
2023-02-05T02:49:08.622Z,3.90
2023-02-05T02:51:36.789Z,3.90
2023-02-05T02:54:08.044Z,3.90
2023-02-05T02:56:37.645Z,3.60
2023-02-05T02:59:10.290Z,4.50
2023-02-05T03:01:42.580Z,4.30
2023-02-05T03:04:14.948Z,3.20
2023-02-05T03:06:45.256Z,3.80
2023-02-05T03:09:22.793Z,4.20
2023-02-05T03:11:51.164Z,4.00
2023-02-05T03:14:19.719Z,4.20
2023-02-05T03:16:47.774Z,3.70
2023-02-05T03:19:16.536Z,3.90
2023-02-05T03:21:51.478Z,4.60
2023-02-05T03:24:19.628Z,4.10
2023-02-05T03:26:49.529Z,4.40
2023-02-05T03:32:34.118Z,3.60
2023-02-05T03:35:08.222Z,4.30
2023-02-05T03:37:52.269Z,4.00
2023-02-05T03:40:20.684Z,4.50
2023-02-05T03:43:04.240Z,4.10
2023-02-05T03:45:35.238Z,3.80
2023-02-05T03:48:41.009Z,4.10
2023-02-05T03:51:33.218Z,4.40
2023-02-05T03:54:07.080Z,4.30
2023-02-05T03:56:56.931Z,4.50
2023-02-05T03:59:25.309Z,4.10
2023-02-05T04:01:53.776Z,4.60
2023-02-05T04:04:22.097Z,4.10
2023-02-05T04:06:52.773Z,5.10
2023-02-05T04:09:20.907Z,4.70
2023-02-05T04:11:48.798Z,4.90
2023-02-05T04:14:18.460Z,5.20
2023-02-05T04:16:47.116Z,4.70
2023-02-05T04:19:15.400Z,4.70
2023-02-05T04:21:43.654Z,4.60
2023-02-05T04:24:12.476Z,4.40
2023-02-05T04:26:40.640Z,4.40
2023-02-05T04:29:09.298Z,4.40
2023-02-05T04:31:42.969Z,4.70
2023-02-05T04:34:12.164Z,4.90
2023-02-05T04:36:41.159Z,4.60
2023-02-05T04:39:09.295Z,4.30
2023-02-05T04:41:37.949Z,5.20
2023-02-05T04:44:06.855Z,4.60
2023-02-05T04:46:35.873Z,4.80
2023-02-05T04:49:04.050Z,4.50
2023-02-05T04:51:32.880Z,4.70
2023-02-05T04:54:00.947Z,5.00
2023-02-05T04:56:29.179Z,4.80
2023-02-05T04:58:57.432Z,5.20
2023-02-05T05:01:25.825Z,5.00
2023-02-05T05:03:53.978Z,4.50
2023-02-05T05:06:21.951Z,4.50
2023-02-05T05:08:49.961Z,4.50
2023-02-05T05:11:18.958Z,4.60
2023-02-05T05:13:49.447Z,5.60
2023-02-05T05:16:17.950Z,4.90
2023-02-05T05:18:46.091Z,5.80
2023-02-05T05:21:14.307Z,4.90
2023-02-05T05:23:42.845Z,5.00
2023-02-05T05:26:11.701Z,5.30
2023-02-05T05:28:39.871Z,5.40
2023-02-05T05:31:16.942Z,6.00
2023-02-05T05:33:45.783Z,5.60
2023-02-05T05:36:14.465Z,5.50
2023-02-05T05:38:42.643Z,4.90
2023-02-05T05:41:41.682Z,5.70
2023-02-05T05:44:09.959Z,5.90
2023-02-05T05:46:41.918Z,6.00
2023-02-05T05:49:10.176Z,5.80
2023-02-05T05:51:38.655Z,5.80
2023-02-05T05:54:06.721Z,6.00
2023-02-05T05:56:36.361Z,5.60
2023-02-05T05:59:04.631Z,5.90
2023-02-05T06:01:32.792Z,6.40
2023-02-05T06:04:03.628Z,5.80
2023-02-05T06:06:32.184Z,6.60
2023-02-05T06:09:00.382Z,6.60
2023-02-05T06:11:28.704Z,5.80
2023-02-05T06:13:57.174Z,6.90
2023-02-05T06:16:25.775Z,6.50
2023-02-05T06:18:55.298Z,6.50
2023-02-05T06:21:24.054Z,6.10
2023-02-05T06:23:55.608Z,6.20
2023-02-05T06:26:23.570Z,6.10
2023-02-05T06:28:51.522Z,7.30
2023-02-05T06:31:19.545Z,6.90
2023-02-05T06:33:49.478Z,6.90
2023-02-05T06:36:17.773Z,7.00
2023-02-05T06:38:45.759Z,6.70
2023-02-05T06:41:13.784Z,6.90
2023-02-05T06:43:42.883Z,6.40
2023-02-05T06:46:11.994Z,6.70
2023-02-05T06:48:40.008Z,6.40
2023-02-05T06:51:08.092Z,6.40
2023-02-05T06:53:36.098Z,7.20
2023-02-05T06:56:04.857Z,7.10
2023-02-05T06:58:32.837Z,6.60
2023-02-05T07:01:02.018Z,6.30
2023-02-05T07:03:30.118Z,6.60
2023-02-05T07:06:05.052Z,6.40
2023-02-05T07:08:33.480Z,6.70
2023-02-05T07:11:02.267Z,7.10
2023-02-05T07:13:33.260Z,7.70
2023-02-05T07:16:05.527Z,6.60
2023-02-05T07:18:33.918Z,7.10
2023-02-05T07:21:08.978Z,7.30
2023-02-05T07:23:37.532Z,6.40
2023-02-05T07:26:07.570Z,7.40
2023-02-05T07:28:35.759Z,6.70
2023-02-05T07:31:06.308Z,6.80
2023-02-05T07:33:37.073Z,6.90
2023-02-05T07:36:06.834Z,5.60
2023-02-05T07:38:36.361Z,7.20
2023-02-05T07:41:09.378Z,7.80
2023-02-05T07:43:37.693Z,6.60
2023-02-05T07:46:07.475Z,7.30
2023-02-05T07:48:35.747Z,6.80
2023-02-05T07:51:04.718Z,6.80
2023-02-05T07:53:32.922Z,7.10
2023-02-05T07:56:04.787Z,5.50
2023-02-05T07:58:33.089Z,7.30
2023-02-05T08:03:43.433Z,6.30
2023-02-05T08:06:14.010Z,7.50
2023-02-05T08:08:42.482Z,6.80
2023-02-05T08:11:14.204Z,7.70
2023-02-05T08:13:43.329Z,7.90
2023-02-05T08:16:15.810Z,6.50
2023-02-05T08:21:16.243Z,7.20
2023-02-05T08:23:44.358Z,6.20
2023-02-05T08:26:13.474Z,7.00
2023-02-05T08:28:41.840Z,7.10
2023-02-05T08:31:15.644Z,6.40
2023-02-05T08:33:44.124Z,6.80
2023-02-05T08:36:12.267Z,7.00
2023-02-05T08:38:41.052Z,6.70
2023-02-05T08:41:12.816Z,7.80
2023-02-05T08:43:41.962Z,6.00
2023-02-05T08:46:10.491Z,7.20
2023-02-05T08:48:38.796Z,6.70
2023-02-05T08:51:09.950Z,7.30
2023-02-05T08:53:38.143Z,6.50
2023-02-05T08:56:06.837Z,6.20
2023-02-05T08:58:34.926Z,7.20
2023-02-05T09:01:05.779Z,6.40
2023-02-05T09:03:34.114Z,7.00
2023-02-05T09:06:05.351Z,6.90
2023-02-05T09:08:33.366Z,6.60
2023-02-05T09:11:01.602Z,6.70
2023-02-05T09:13:30.002Z,7.60
2023-02-05T09:16:00.854Z,7.20
2023-02-05T09:18:29.100Z,7.00
2023-02-05T09:20:57.584Z,6.60
2023-02-05T09:23:26.070Z,6.20
2023-02-05T09:25:54.349Z,7.60
2023-02-05T09:28:22.880Z,7.00
2023-02-05T09:30:51.773Z,7.40
2023-02-05T09:33:19.957Z,7.70
2023-02-05T09:35:48.079Z,6.60
2023-02-05T09:38:17.976Z,9.30
2023-02-05T09:41:10.500Z,8.00
2023-02-05T09:43:57.133Z,8.10
2023-02-05T09:46:40.436Z,7.90
2023-02-05T09:49:18.760Z,8.20
2023-02-05T09:51:51.820Z,7.10
2023-02-05T09:54:26.056Z,7.30
2023-02-05T09:56:56.924Z,7.90
2023-02-05T09:59:26.536Z,7.10
2023-02-05T10:01:58.926Z,8.00
2023-02-05T10:04:27.874Z,9.30
2023-02-05T10:06:55.899Z,7.50
2023-02-05T10:09:54.437Z,7.50
2023-02-05T10:12:41.667Z,6.80
2023-02-05T10:15:29.315Z,6.50
2023-02-05T10:18:18.826Z,7.20
2023-02-05T10:20:56.057Z,6.30
2023-02-05T10:23:50.839Z,6.80
2023-02-05T10:26:19.015Z,6.80
2023-02-05T10:29:03.875Z,6.30
2023-02-05T10:31:36.937Z,5.90
2023-02-05T10:34:30.752Z,9.70
2023-02-05T10:36:58.755Z,7.20
2023-02-05T10:39:29.123Z,6.40
2023-02-05T10:42:17.227Z,6.90
2023-02-05T10:44:46.588Z,7.50
2023-02-05T10:47:29.002Z,6.40
2023-02-05T10:50:01.340Z,8.40
2023-02-05T10:52:29.446Z,7.80
2023-02-05T10:54:57.829Z,8.20
2023-02-05T10:57:25.976Z,8.30
2023-02-05T10:59:56.215Z,6.80
2023-02-05T11:02:38.324Z,7.70
2023-02-05T11:05:27.843Z,7.00
2023-02-05T11:07:56.362Z,7.00
2023-02-05T11:10:26.160Z,8.50
2023-02-05T11:12:56.613Z,7.20
2023-02-05T11:15:29.627Z,9.10
2023-02-05T11:18:05.244Z,8.70
2023-02-05T11:20:35.662Z,8.90
2023-02-05T11:23:18.550Z,10.50
2023-02-05T11:25:57.989Z,8.50
2023-02-05T11:28:29.802Z,9.60
2023-02-05T11:31:04.677Z,13.10
2023-02-05T11:33:33.503Z,10.40
2023-02-05T11:36:03.946Z,7.80
2023-02-05T11:38:46.705Z,10.80
2023-02-05T11:41:52.060Z,11.80
2023-02-05T11:44:25.900Z,10.30
2023-02-05T11:46:56.985Z,11.30
2023-02-05T11:49:31.370Z,12.80
2023-02-05T11:52:02.462Z,10.40
2023-02-05T11:54:32.496Z,15.50
2023-02-05T11:57:17.489Z,17.70
2023-02-05T11:59:54.758Z,14.00
2023-02-05T12:02:28.850Z,12.90
2023-02-05T12:05:31.282Z,12.80
2023-02-05T12:08:07.084Z,11.90
2023-02-05T12:11:01.328Z,13.20
2023-02-05T12:13:39.326Z,13.30
2023-02-05T12:16:47.638Z,9.80
2023-02-05T12:19:31.163Z,9.80
2023-02-05T12:22:24.023Z,11.40
2023-02-05T12:24:55.270Z,11.20
2023-02-05T12:27:50.284Z,14.60
2023-02-05T12:30:44.682Z,16.80
2023-02-05T12:33:35.160Z,17.70
2023-02-05T12:36:22.067Z,19.00
2023-02-05T12:39:15.253Z,21.90
2023-02-05T12:41:55.143Z,49.30
2023-02-05T12:44:28.256Z,33.60
2023-02-05T12:47:19.378Z,68.80
2023-02-05T12:52:45.925Z,28.90
2023-02-05T12:55:29.487Z,27.90
2023-02-05T12:58:04.241Z,25.80
2023-02-05T13:00:34.429Z,21.70
2023-02-05T13:03:17.234Z,13.60
2023-02-05T13:05:48.267Z,10.00
2023-02-05T13:08:20.416Z,9.80
2023-02-05T13:10:55.341Z,27.60
2023-02-05T13:13:32.256Z,19.40
2023-02-05T13:16:14.895Z,30.30
2023-02-05T13:18:54.501Z,29.20
2023-02-05T13:21:41.727Z,20.70
2023-02-05T13:24:31.504Z,13.00
2023-02-05T13:27:18.860Z,12.60
2023-02-05T13:29:51.717Z,13.40
2023-02-05T13:32:21.934Z,10.80
2023-02-05T13:34:54.934Z,10.90
2023-02-05T13:38:01.558Z,11.60
2023-02-05T13:40:36.148Z,11.40
2023-02-05T13:43:20.060Z,12.50
2023-02-05T13:46:10.626Z,11.10
2023-02-05T13:48:52.624Z,9.60
2023-02-05T13:51:39.059Z,10.20
2023-02-05T13:54:24.273Z,11.10
2023-02-05T13:56:58.767Z,11.00
2023-02-05T13:59:40.962Z,11.00
2023-02-05T14:02:39.623Z,32.80
2023-02-05T14:05:08.097Z,34.70
2023-02-05T14:07:50.035Z,38.50
2023-02-05T14:10:27.944Z,45.20
2023-02-05T14:13:33.776Z,32.30
2023-02-05T14:16:38.014Z,45.00
2023-02-05T14:19:21.990Z,34.40
2023-02-05T14:22:00.063Z,27.70
2023-02-05T14:24:45.240Z,19.50
2023-02-05T14:27:39.869Z,15.10
2023-02-05T14:30:30.727Z,11.70
2023-02-05T14:33:05.729Z,11.20
2023-02-05T14:35:40.791Z,11.10
2023-02-05T14:38:32.201Z,10.80
2023-02-05T14:41:10.688Z,10.40
2023-02-05T14:43:41.062Z,10.90
2023-02-05T14:46:27.216Z,11.30
2023-02-05T14:49:00.022Z,10.30
2023-02-05T14:51:35.171Z,10.00
2023-02-05T14:54:04.779Z,12.50
2023-02-05T14:56:46.888Z,24.60
2023-02-05T14:59:29.853Z,18.00
2023-02-05T15:02:00.070Z,18.00
2023-02-05T15:04:30.139Z,30.00
2023-02-05T15:06:59.453Z,23.00
2023-02-05T15:09:39.189Z,15.90
2023-02-05T15:12:07.868Z,13.10
2023-02-05T15:14:51.918Z,12.80
2023-02-05T15:17:29.537Z,11.80
2023-02-05T15:20:00.623Z,12.20
2023-02-05T15:22:33.799Z,11.70
2023-02-05T15:25:10.508Z,12.80
2023-02-05T15:27:46.972Z,11.10
2023-02-05T15:30:18.423Z,11.50
2023-02-05T15:32:54.175Z,12.90
2023-02-05T15:35:24.914Z,11.90
2023-02-05T15:40:27.452Z,10.50
2023-02-05T15:42:58.317Z,12.70
2023-02-05T15:45:32.345Z,12.60
2023-02-05T15:48:16.314Z,12.30
2023-02-05T15:50:49.796Z,13.20
2023-02-05T15:53:35.916Z,13.20
2023-02-05T15:56:21.753Z,11.60
2023-02-05T15:59:11.994Z,15.90
2023-02-05T16:02:06.559Z,12.50
2023-02-05T16:04:37.624Z,14.60
2023-02-05T16:09:48.412Z,22.50
2023-02-05T16:12:16.580Z,16.40
2023-02-05T16:14:44.939Z,15.90
2023-02-05T16:17:18.435Z,13.70
2023-02-05T16:19:52.966Z,11.60
2023-02-05T16:22:37.581Z,13.90
2023-02-05T16:25:13.235Z,14.00
2023-02-05T16:27:44.902Z,11.40
2023-02-05T16:30:33.463Z,13.90
2023-02-05T16:33:02.469Z,12.10
2023-02-05T16:35:36.605Z,11.50
2023-02-05T16:38:09.199Z,12.70
2023-02-05T16:40:43.306Z,12.80
2023-02-05T16:54:44.569Z,12.40
2023-02-05T16:57:14.420Z,12.80
2023-02-05T16:59:50.284Z,10.20
2023-02-05T17:02:39.642Z,11.20
2023-02-05T17:05:28.220Z,12.10
2023-02-05T17:08:02.121Z,11.10
2023-02-05T17:10:30.864Z,9.70
2023-02-05T17:13:05.382Z,10.90
2023-02-05T17:15:40.303Z,10.50
2023-02-05T17:18:24.158Z,11.20
2023-02-05T17:21:17.725Z,12.80
2023-02-05T17:23:50.364Z,17.50
2023-02-05T17:26:18.539Z,11.80
2023-02-05T17:28:52.552Z,12.90
2023-02-05T17:31:25.109Z,13.60
2023-02-05T17:33:58.047Z,11.80
2023-02-05T17:36:26.528Z,10.20
2023-02-05T17:38:54.623Z,10.60
2023-02-05T17:41:43.165Z,10.20
2023-02-05T17:44:15.857Z,11.10
2023-02-05T17:46:44.530Z,12.80
2023-02-05T17:49:13.217Z,12.30
2023-02-05T17:51:42.726Z,11.10
2023-02-05T17:54:17.016Z,11.10
2023-02-05T17:56:46.029Z,11.50
2023-02-05T17:59:15.857Z,12.60
2023-02-05T18:01:44.853Z,11.30
2023-02-05T18:04:13.132Z,12.10
2023-02-05T18:06:42.052Z,13.50
2023-02-05T18:09:10.371Z,12.00
2023-02-05T18:11:39.561Z,12.30
2023-02-05T18:14:08.884Z,12.70
2023-02-05T18:16:37.344Z,10.80
2023-02-05T18:19:05.829Z,11.60
2023-02-05T18:21:36.253Z,11.00
2023-02-05T18:24:04.733Z,11.80
2023-02-05T18:26:34.555Z,10.70
2023-02-05T18:29:03.039Z,12.10
2023-02-05T18:31:46.392Z,12.00
2023-02-05T18:34:14.683Z,10.10
2023-02-05T18:36:43.322Z,10.40
2023-02-05T18:39:11.623Z,12.40
2023-02-05T18:41:41.534Z,10.60
2023-02-05T18:44:09.794Z,11.20
2023-02-05T18:46:38.686Z,12.60
2023-02-05T18:49:07.171Z,12.10
2023-02-05T18:51:37.476Z,12.60
2023-02-05T18:54:06.996Z,11.80
2023-02-05T18:56:35.886Z,13.40
2023-02-05T18:59:06.424Z,12.50
2023-02-05T19:01:38.685Z,12.00
2023-02-05T19:04:08.569Z,11.10
2023-02-05T19:06:37.036Z,12.50
2023-02-05T19:09:05.275Z,11.50
2023-02-05T19:11:40.942Z,10.90
2023-02-05T19:14:11.260Z,10.50
2023-02-05T19:16:39.554Z,9.50
2023-02-05T19:19:07.938Z,9.80
2023-02-05T19:21:36.279Z,10.20
2023-02-05T19:24:10.060Z,9.70
2023-02-05T19:26:39.256Z,10.10
2023-02-05T19:29:09.373Z,9.30
2023-02-05T19:31:38.020Z,11.20
2023-02-05T19:34:06.647Z,9.30
2023-02-05T19:36:35.121Z,9.70
2023-02-05T19:39:04.892Z,10.00
2023-02-05T19:41:34.047Z,9.20
2023-02-05T19:44:04.436Z,9.80
2023-02-05T19:46:35.271Z,9.30
2023-02-05T19:49:05.745Z,9.20
2023-02-05T19:51:33.905Z,10.60
2023-02-05T19:54:06.719Z,9.00
2023-02-05T19:56:38.238Z,9.70
2023-02-05T19:59:07.031Z,9.80
2023-02-05T20:01:36.729Z,10.00
2023-02-05T20:04:19.232Z,8.70
2023-02-05T20:06:47.292Z,8.50
2023-02-05T20:09:16.112Z,8.70
2023-02-05T20:11:48.762Z,8.80
2023-02-05T20:14:17.016Z,10.60
2023-02-05T20:16:45.733Z,9.30
2023-02-05T20:19:15.192Z,9.80
2023-02-05T20:21:43.935Z,8.60
2023-02-05T20:24:12.499Z,8.70
2023-02-05T20:26:40.927Z,10.00
2023-02-05T20:29:30.485Z,9.80
2023-02-05T20:32:00.793Z,8.50
2023-02-05T20:34:31.979Z,9.30
2023-02-05T20:37:04.618Z,8.70
2023-02-05T20:39:35.043Z,9.80
2023-02-05T20:42:03.332Z,8.50
2023-02-05T20:44:33.870Z,8.70
2023-02-05T20:47:10.320Z,9.20
2023-02-05T20:49:43.035Z,9.00
2023-02-05T20:52:11.617Z,9.70
2023-02-05T20:54:40.586Z,10.40
2023-02-05T20:57:09.476Z,9.10
2023-02-05T20:59:38.997Z,9.70
2023-02-05T21:02:07.578Z,8.90
2023-02-05T21:04:36.934Z,8.70
2023-02-05T21:07:04.912Z,10.80
2023-02-05T21:09:33.033Z,9.30
2023-02-05T21:12:01.200Z,10.10
2023-02-05T21:14:30.677Z,10.80
2023-02-05T21:16:59.912Z,10.60
2023-02-05T21:19:28.873Z,10.60
2023-02-05T21:21:57.452Z,11.10
2023-02-05T21:24:25.625Z,9.50
2023-02-05T21:26:54.517Z,10.10
2023-02-05T21:29:22.802Z,10.70
2023-02-05T21:31:53.361Z,10.20
2023-02-05T21:34:23.519Z,9.80
2023-02-05T21:36:52.753Z,10.40
2023-02-05T21:39:21.576Z,9.00
2023-02-05T21:41:54.397Z,10.00
2023-02-05T21:44:23.231Z,9.90
2023-02-05T21:46:53.421Z,9.70
2023-02-05T21:49:21.606Z,9.50
2023-02-05T21:51:50.589Z,9.40
2023-02-05T21:54:20.812Z,9.80
2023-02-05T21:56:48.705Z,8.80
2023-02-05T21:59:16.649Z,9.60
2023-02-05T22:01:44.841Z,9.50
2023-02-05T22:04:14.724Z,9.10
2023-02-05T22:06:43.757Z,8.70
2023-02-05T22:09:16.773Z,9.00
2023-02-05T22:11:44.901Z,10.20
2023-02-05T22:14:13.287Z,10.60
2023-02-05T22:16:41.992Z,9.70
2023-02-05T22:19:13.498Z,9.00
2023-02-05T22:21:42.205Z,9.10
2023-02-05T22:24:15.106Z,9.90
2023-02-05T22:26:43.880Z,10.20
2023-02-05T22:29:13.741Z,8.50
2023-02-05T22:31:42.335Z,10.70
2023-02-05T22:34:10.975Z,10.10
2023-02-05T22:36:39.339Z,9.30
2023-02-05T22:39:07.394Z,11.20
2023-02-05T22:41:37.725Z,10.30
2023-02-05T22:44:06.337Z,10.60
2023-02-05T22:46:38.062Z,9.80
2023-02-05T22:49:06.149Z,8.40
2023-02-05T22:51:37.442Z,9.90
2023-02-05T22:54:06.131Z,9.30
2023-02-05T22:56:35.866Z,10.00
2023-02-05T22:59:03.998Z,9.30
2023-02-05T23:01:34.062Z,9.50
2023-02-05T23:04:03.284Z,9.20
2023-02-05T23:06:32.999Z,9.40
2023-02-05T23:09:05.976Z,8.90
2023-02-05T23:11:35.096Z,10.20
2023-02-05T23:14:03.718Z,10.10
2023-02-05T23:16:34.195Z,10.20
2023-02-05T23:19:04.676Z,10.20
2023-02-05T23:21:38.283Z,9.10
2023-02-05T23:24:06.741Z,9.60
2023-02-05T23:26:39.876Z,10.70
2023-02-05T23:29:09.051Z,10.60
2023-02-05T23:31:37.801Z,11.10
2023-02-05T23:34:06.001Z,10.60
2023-02-05T23:36:34.721Z,11.80
2023-02-05T23:39:03.206Z,11.60
2023-02-05T23:41:36.995Z,11.40
2023-02-05T23:44:13.200Z,11.20
2023-02-05T23:46:42.343Z,11.50
2023-02-05T23:49:10.549Z,10.30
2023-02-05T23:51:40.367Z,11.50
2023-02-05T23:54:09.634Z,11.30
2023-02-05T23:56:38.074Z,10.60
2023-02-05T23:59:07.208Z,12.40
